Hauptseite
METAR-TAF:

METAR-TAF

Flughäfen :

Flughafen Kuwait

Kuwait-Stadt, Kuwait

Breite: 29-13N, Länge: 047-59E, Höhe: 55 m

Beobachtung

Neuester Wetterbericht von vor 32 Minuten, um 05:00 UTC
Wind 4 kt aus Nordwest
Temperatur 26°C
Luftfeuchtigkeit 34%
Luftdruck 1010 hPa
Sichtweite 10 km oder mehr
keine Wolken unter 1500 m und keine Kumulonimbus oder Gewitterwolken

METAR: OKKK 130500Z 31004KT CAVOK 26/09 Q1010 NOSIG

Zeit: 08:32 (05:32 UTC)

Prognose

Neuester Wetterbericht von vor 12 Stunden und 32 Minuten, um 17:00 UTC
Gültige Prognose vom 12 um 18 UTC bis 13 um 24 UTC
Wind 12 kt aus Nord/Nordwest
Sichtweite: 7000 m
Zeitweise
vom 13 um 00 UTC bis 13 um 06 UTC
Wind 3 kt aus unterschiedlichen Richtungen

TAF: OKKK 121700Z 1218/1324 34012KT 7000 NSC TEMPO 1300/1306 VRB03KT

Wetterbeobachtungen und Prognosen von mehr als 4000 Flughäfen (METAR und TAF Bericht).

Die verfügbaren Stationen werden durch gelbe und rote Markierungen auf der Karte dargestellt.

Führen Sie die Maus auf sie, um den Namen der Station zu sehen.

Darauf klicken, um die Beobachtung von Wetterbeobachtungen und Prognosen zu sehen.

Um die Karte zu ändern : klicken Sie auf den grünen Tasten mit einem schwarzen Kreuz Zum Vergrößern, auf den grünen Button mit einem Gedankenstrich zu verkleinern, oder auf die grünen Pfeile für benachbarte Karten.


METAR-TAF: